sensor_id;sensor_type;location;lat;lon;timestamp;P1;durP1;ratioP1;P2;durP2;ratioP2
15230;SDS011;32569;51.762;8.564;2023-03-20T00:00:28;31.87;;;20.33;;
15230;SDS011;32569;51.762;8.564;2023-03-20T00:02:57;34.47;;;20.40;;
15230;SDS011;32569;51.762;8.564;2023-03-20T00:05:28;34.80;;;20.70;;
15230;SDS011;32569;51.762;8.564;2023-03-20T00:07:56;31.67;;;20.17;;
15230;SDS011;32569;51.762;8.564;2023-03-20T00:10:25;35.23;;;20.70;;
15230;SDS011;32569;51.762;8.564;2023-03-20T00:12:56;38.10;;;22.53;;
15230;SDS011;32569;51.762;8.564;2023-03-20T00:15:27;33.47;;;21.07;;
15230;SDS011;32569;51.762;8.564;2023-03-20T00:17:56;34.43;;;20.63;;
15230;SDS011;32569;51.762;8.564;2023-03-20T00:20:26;37.13;;;21.23;;
15230;SDS011;32569;51.762;8.564;2023-03-20T00:22:55;35.53;;;20.23;;
15230;SDS011;32569;51.762;8.564;2023-03-20T00:25:23;38.90;;;22.67;;
15230;SDS011;32569;51.762;8.564;2023-03-20T00:27:51;36.53;;;23.23;;
15230;SDS011;32569;51.762;8.564;2023-03-20T00:30:22;34.83;;;22.07;;
15230;SDS011;32569;51.762;8.564;2023-03-20T00:32:52;38.10;;;22.10;;
15230;SDS011;32569;51.762;8.564;2023-03-20T00:35:23;38.53;;;22.67;;
15230;SDS011;32569;51.762;8.564;2023-03-20T00:37:53;36.70;;;21.90;;
15230;SDS011;32569;51.762;8.564;2023-03-20T00:40:20;37.67;;;22.73;;
15230;SDS011;32569;51.762;8.564;2023-03-20T00:42:54;35.77;;;20.87;;
15230;SDS011;32569;51.762;8.564;2023-03-20T00:45:26;31.17;;;20.47;;
15230;SDS011;32569;51.762;8.564;2023-03-20T00:47:54;33.47;;;21.30;;
15230;SDS011;32569;51.762;8.564;2023-03-20T00:50:23;37.13;;;21.73;;
15230;SDS011;32569;51.762;8.564;2023-03-20T00:52:51;32.93;;;20.47;;
15230;SDS011;32569;51.762;8.564;2023-03-20T00:55:19;34.10;;;20.50;;
15230;SDS011;32569;51.762;8.564;2023-03-20T00:57:53;32.37;;;20.27;;
15230;SDS011;32569;51.762;8.564;2023-03-20T01:00:23;34.40;;;20.20;;
15230;SDS011;32569;51.762;8.564;2023-03-20T01:02:56;31.53;;;20.43;;
15230;SDS011;32569;51.762;8.564;2023-03-20T01:05:23;32.63;;;20.97;;
15230;SDS011;32569;51.762;8.564;2023-03-20T01:07:51;35.07;;;21.73;;
15230;SDS011;32569;51.762;8.564;2023-03-20T01:10:18;34.20;;;20.67;;
15230;SDS011;32569;51.762;8.564;2023-03-20T01:12:47;33.40;;;21.50;;
15230;SDS011;32569;51.762;8.564;2023-03-20T01:15:17;34.63;;;22.30;;
15230;SDS011;32569;51.762;8.564;2023-03-20T01:17:45;37.23;;;22.77;;
15230;SDS011;32569;51.762;8.564;2023-03-20T01:20:17;38.30;;;21.90;;
15230;SDS011;32569;51.762;8.564;2023-03-20T01:22:45;34.63;;;21.67;;
15230;SDS011;32569;51.762;8.564;2023-03-20T01:25:12;36.33;;;22.33;;
15230;SDS011;32569;51.762;8.564;2023-03-20T01:27:40;32.17;;;21.23;;
15230;SDS011;32569;51.762;8.564;2023-03-20T01:30:14;32.20;;;20.87;;
15230;SDS011;32569;51.762;8.564;2023-03-20T01:32:44;36.50;;;21.43;;
15230;SDS011;32569;51.762;8.564;2023-03-20T01:35:12;34.73;;;20.70;;
15230;SDS011;32569;51.762;8.564;2023-03-20T01:37:40;32.13;;;20.03;;
15230;SDS011;32569;51.762;8.564;2023-03-20T01:40:10;31.80;;;20.50;;
15230;SDS011;32569;51.762;8.564;2023-03-20T01:42:44;30.60;;;19.73;;
15230;SDS011;32569;51.762;8.564;2023-03-20T01:45:13;34.30;;;21.43;;
15230;SDS011;32569;51.762;8.564;2023-03-20T01:47:44;28.60;;;18.33;;
15230;SDS011;32569;51.762;8.564;2023-03-20T01:52:58;30.97;;;19.60;;
15230;SDS011;32569;51.762;8.564;2023-03-20T01:55:29;31.67;;;18.30;;
15230;SDS011;32569;51.762;8.564;2023-03-20T01:57:56;31.63;;;18.83;;
15230;SDS011;32569;51.762;8.564;2023-03-20T02:00:25;34.77;;;20.20;;
15230;SDS011;32569;51.762;8.564;2023-03-20T02:02:53;30.93;;;18.93;;
15230;SDS011;32569;51.762;8.564;2023-03-20T02:05:20;30.87;;;19.53;;
15230;SDS011;32569;51.762;8.564;2023-03-20T02:07:50;31.80;;;18.73;;
15230;SDS011;32569;51.762;8.564;2023-03-20T02:10:24;33.03;;;18.77;;
15230;SDS011;32569;51.762;8.564;2023-03-20T02:12:54;33.37;;;19.13;;
15230;SDS011;32569;51.762;8.564;2023-03-20T02:15:21;30.20;;;18.90;;
15230;SDS011;32569;51.762;8.564;2023-03-20T02:17:56;30.93;;;19.90;;
15230;SDS011;32569;51.762;8.564;2023-03-20T02:20:27;33.67;;;18.77;;
15230;SDS011;32569;51.762;8.564;2023-03-20T02:23:10;29.43;;;18.37;;
15230;SDS011;32569;51.762;8.564;2023-03-20T02:26:02;33.43;;;18.97;;
15230;SDS011;32569;51.762;8.564;2023-03-20T02:28:58;33.83;;;18.87;;
15230;SDS011;32569;51.762;8.564;2023-03-20T02:34:52;30.73;;;18.40;;
15230;SDS011;32569;51.762;8.564;2023-03-20T02:37:38;30.47;;;18.53;;
15230;SDS011;32569;51.762;8.564;2023-03-20T02:40:20;32.27;;;19.03;;
15230;SDS011;32569;51.762;8.564;2023-03-20T02:43:00;30.43;;;19.00;;
15230;SDS011;32569;51.762;8.564;2023-03-20T02:45:36;30.57;;;18.27;;
15230;SDS011;32569;51.762;8.564;2023-03-20T02:48:15;35.60;;;19.87;;
15230;SDS011;32569;51.762;8.564;2023-03-20T02:50:52;31.47;;;18.53;;
15230;SDS011;32569;51.762;8.564;2023-03-20T02:53:30;32.93;;;18.93;;
15230;SDS011;32569;51.762;8.564;2023-03-20T02:56:04;30.83;;;19.03;;
15230;SDS011;32569;51.762;8.564;2023-03-20T02:58:38;31.00;;;18.00;;
15230;SDS011;32569;51.762;8.564;2023-03-20T03:01:10;28.20;;;17.40;;
15230;SDS011;32569;51.762;8.564;2023-03-20T03:03:43;32.13;;;18.63;;
15230;SDS011;32569;51.762;8.564;2023-03-20T03:06:14;32.07;;;19.67;;
15230;SDS011;32569;51.762;8.564;2023-03-20T03:08:48;34.33;;;19.60;;
15230;SDS011;32569;51.762;8.564;2023-03-20T03:11:19;33.40;;;19.73;;
15230;SDS011;32569;51.762;8.564;2023-03-20T03:13:47;35.20;;;19.43;;
15230;SDS011;32569;51.762;8.564;2023-03-20T03:16:18;32.43;;;20.27;;
15230;SDS011;32569;51.762;8.564;2023-03-20T03:18:48;32.43;;;20.20;;
15230;SDS011;32569;51.762;8.564;2023-03-20T03:21:18;35.50;;;20.27;;
15230;SDS011;32569;51.762;8.564;2023-03-20T03:23:47;34.83;;;19.57;;
15230;SDS011;32569;51.762;8.564;2023-03-20T03:26:17;35.30;;;21.10;;
15230;SDS011;32569;51.762;8.564;2023-03-20T03:28:47;35.30;;;20.67;;
15230;SDS011;32569;51.762;8.564;2023-03-20T03:31:16;35.70;;;20.57;;
15230;SDS011;32569;51.762;8.564;2023-03-20T03:33:44;36.60;;;21.20;;
15230;SDS011;32569;51.762;8.564;2023-03-20T03:36:15;35.97;;;20.93;;
15230;SDS011;32569;51.762;8.564;2023-03-20T03:38:52;43.40;;;23.87;;
15230;SDS011;32569;51.762;8.564;2023-03-20T03:41:25;40.50;;;24.23;;
15230;SDS011;32569;51.762;8.564;2023-03-20T03:43:57;48.67;;;26.13;;
15230;SDS011;32569;51.762;8.564;2023-03-20T03:46:31;47.70;;;26.10;;
15230;SDS011;32569;51.762;8.564;2023-03-20T03:49:05;48.33;;;26.97;;
15230;SDS011;32569;51.762;8.564;2023-03-20T03:51:35;42.17;;;25.93;;
15230;SDS011;32569;51.762;8.564;2023-03-20T03:54:09;50.07;;;30.23;;
15230;SDS011;32569;51.762;8.564;2023-03-20T03:56:38;52.73;;;30.60;;
15230;SDS011;32569;51.762;8.564;2023-03-20T03:59:10;52.80;;;28.00;;
15230;SDS011;32569;51.762;8.564;2023-03-20T04:01:45;45.43;;;26.97;;
15230;SDS011;32569;51.762;8.564;2023-03-20T04:04:14;43.00;;;25.93;;
15230;SDS011;32569;51.762;8.564;2023-03-20T04:06:42;46.33;;;25.10;;
15230;SDS011;32569;51.762;8.564;2023-03-20T04:09:10;44.30;;;26.50;;
15230;SDS011;32569;51.762;8.564;2023-03-20T04:11:37;41.97;;;25.40;;
15230;SDS011;32569;51.762;8.564;2023-03-20T04:14:07;40.90;;;25.90;;
15230;SDS011;32569;51.762;8.564;2023-03-20T04:16:33;44.77;;;24.00;;
15230;SDS011;32569;51.762;8.564;2023-03-20T04:19:00;41.70;;;25.20;;
15230;SDS011;32569;51.762;8.564;2023-03-20T04:21:27;38.60;;;24.17;;
15230;SDS011;32569;51.762;8.564;2023-03-20T04:23:53;38.53;;;24.30;;
15230;SDS011;32569;51.762;8.564;2023-03-20T04:26:21;37.43;;;22.67;;
15230;SDS011;32569;51.762;8.564;2023-03-20T04:28:48;36.50;;;23.33;;
15230;SDS011;32569;51.762;8.564;2023-03-20T04:31:15;37.87;;;23.50;;
15230;SDS011;32569;51.762;8.564;2023-03-20T04:33:42;38.43;;;22.70;;
15230;SDS011;32569;51.762;8.564;2023-03-20T04:36:09;36.33;;;22.90;;
15230;SDS011;32569;51.762;8.564;2023-03-20T04:38:37;39.77;;;22.67;;
15230;SDS011;32569;51.762;8.564;2023-03-20T04:41:04;35.77;;;23.43;;
15230;SDS011;32569;51.762;8.564;2023-03-20T04:43:32;35.37;;;23.20;;
15230;SDS011;32569;51.762;8.564;2023-03-20T04:45:59;35.70;;;23.67;;
15230;SDS011;32569;51.762;8.564;2023-03-20T04:48:25;35.73;;;23.07;;
15230;SDS011;32569;51.762;8.564;2023-03-20T04:50:53;35.20;;;23.40;;
15230;SDS011;32569;51.762;8.564;2023-03-20T04:53:19;35.47;;;23.00;;
15230;SDS011;32569;51.762;8.564;2023-03-20T04:55:46;38.57;;;24.83;;
15230;SDS011;32569;51.762;8.564;2023-03-20T04:58:15;38.83;;;24.53;;
15230;SDS011;32569;51.762;8.564;2023-03-20T05:00:43;37.03;;;23.43;;
15230;SDS011;32569;51.762;8.564;2023-03-20T05:03:10;33.87;;;23.37;;
15230;SDS011;32569;51.762;8.564;2023-03-20T05:05:36;37.47;;;23.73;;
15230;SDS011;32569;51.762;8.564;2023-03-20T05:08:03;38.10;;;25.00;;
15230;SDS011;32569;51.762;8.564;2023-03-20T05:10:30;35.33;;;23.90;;
15230;SDS011;32569;51.762;8.564;2023-03-20T05:12:57;35.50;;;22.80;;
15230;SDS011;32569;51.762;8.564;2023-03-20T05:15:23;35.83;;;23.33;;
15230;SDS011;32569;51.762;8.564;2023-03-20T05:17:51;35.10;;;22.83;;
15230;SDS011;32569;51.762;8.564;2023-03-20T05:20:18;39.67;;;29.58;;
15230;SDS011;32569;51.762;8.564;2023-03-20T05:22:47;36.57;;;25.33;;
15230;SDS011;32569;51.762;8.564;2023-03-20T05:25:14;37.13;;;24.27;;
15230;SDS011;32569;51.762;8.564;2023-03-20T05:27:41;33.97;;;23.47;;
15230;SDS011;32569;51.762;8.564;2023-03-20T05:30:10;35.30;;;24.37;;
15230;SDS011;32569;51.762;8.564;2023-03-20T05:32:37;35.03;;;24.13;;
15230;SDS011;32569;51.762;8.564;2023-03-20T05:35:07;33.97;;;24.50;;
15230;SDS011;32569;51.762;8.564;2023-03-20T05:37:34;37.83;;;25.87;;
15230;SDS011;32569;51.762;8.564;2023-03-20T05:40:01;33.57;;;23.37;;
15230;SDS011;32569;51.762;8.564;2023-03-20T05:42:28;36.27;;;24.30;;
15230;SDS011;32569;51.762;8.564;2023-03-20T05:44:54;38.17;;;24.27;;
15230;SDS011;32569;51.762;8.564;2023-03-20T05:47:21;37.60;;;24.83;;
15230;SDS011;32569;51.762;8.564;2023-03-20T05:49:48;40.17;;;25.33;;
15230;SDS011;32569;51.762;8.564;2023-03-20T05:52:16;39.20;;;24.63;;
15230;SDS011;32569;51.762;8.564;2023-03-20T05:54:42;36.60;;;24.43;;
15230;SDS011;32569;51.762;8.564;2023-03-20T05:57:09;36.93;;;23.40;;
15230;SDS011;32569;51.762;8.564;2023-03-20T05:59:36;40.70;;;25.13;;
15230;SDS011;32569;51.762;8.564;2023-03-20T06:02:02;38.07;;;23.53;;
15230;SDS011;32569;51.762;8.564;2023-03-20T06:04:29;38.17;;;24.10;;
15230;SDS011;32569;51.762;8.564;2023-03-20T06:06:56;37.33;;;24.13;;
15230;SDS011;32569;51.762;8.564;2023-03-20T06:09:24;33.70;;;21.83;;
15230;SDS011;32569;51.762;8.564;2023-03-20T06:11:50;32.43;;;19.80;;
15230;SDS011;32569;51.762;8.564;2023-03-20T06:14:17;33.63;;;19.07;;
15230;SDS011;32569;51.762;8.564;2023-03-20T06:16:43;27.90;;;18.17;;
15230;SDS011;32569;51.762;8.564;2023-03-20T06:19:10;28.53;;;18.00;;
15230;SDS011;32569;51.762;8.564;2023-03-20T06:21:37;26.67;;;17.50;;
15230;SDS011;32569;51.762;8.564;2023-03-20T06:24:04;26.57;;;18.20;;
15230;SDS011;32569;51.762;8.564;2023-03-20T06:26:32;25.37;;;17.50;;
15230;SDS011;32569;51.762;8.564;2023-03-20T06:28:59;25.80;;;16.20;;
15230;SDS011;32569;51.762;8.564;2023-03-20T06:31:26;24.73;;;16.97;;
15230;SDS011;32569;51.762;8.564;2023-03-20T06:33:52;21.03;;;15.23;;
15230;SDS011;32569;51.762;8.564;2023-03-20T06:36:19;26.17;;;17.13;;
15230;SDS011;32569;51.762;8.564;2023-03-20T06:38:46;22.97;;;15.47;;
15230;SDS011;32569;51.762;8.564;2023-03-20T06:41:12;23.70;;;16.43;;
15230;SDS011;32569;51.762;8.564;2023-03-20T06:43:40;21.87;;;15.43;;
15230;SDS011;32569;51.762;8.564;2023-03-20T06:46:08;21.57;;;15.63;;
15230;SDS011;32569;51.762;8.564;2023-03-20T06:48:34;21.80;;;15.17;;
15230;SDS011;32569;51.762;8.564;2023-03-20T06:51:02;23.93;;;15.93;;
15230;SDS011;32569;51.762;8.564;2023-03-20T06:53:29;22.17;;;15.50;;
15230;SDS011;32569;51.762;8.564;2023-03-20T06:55:55;21.77;;;15.77;;
15230;SDS011;32569;51.762;8.564;2023-03-20T06:58:22;19.93;;;14.50;;
15230;SDS011;32569;51.762;8.564;2023-03-20T07:00:50;20.43;;;14.83;;
15230;SDS011;32569;51.762;8.564;2023-03-20T07:03:18;18.50;;;13.80;;
15230;SDS011;32569;51.762;8.564;2023-03-20T07:05:45;20.97;;;14.90;;
15230;SDS011;32569;51.762;8.564;2023-03-20T07:08:12;19.93;;;14.43;;
15230;SDS011;32569;51.762;8.564;2023-03-20T07:10:39;20.77;;;14.47;;
15230;SDS011;32569;51.762;8.564;2023-03-20T07:13:05;17.93;;;13.27;;
15230;SDS011;32569;51.762;8.564;2023-03-20T07:15:32;19.77;;;13.80;;
15230;SDS011;32569;51.762;8.564;2023-03-20T07:18:00;19.60;;;13.37;;
15230;SDS011;32569;51.762;8.564;2023-03-20T07:20:27;17.03;;;12.40;;
15230;SDS011;32569;51.762;8.564;2023-03-20T07:22:53;19.77;;;13.37;;
15230;SDS011;32569;51.762;8.564;2023-03-20T07:25:20;19.37;;;12.53;;
15230;SDS011;32569;51.762;8.564;2023-03-20T07:27:47;17.07;;;12.87;;
15230;SDS011;32569;51.762;8.564;2023-03-20T07:30:14;15.97;;;12.77;;
15230;SDS011;32569;51.762;8.564;2023-03-20T07:32:41;18.27;;;11.93;;
15230;SDS011;32569;51.762;8.564;2023-03-20T07:35:09;16.97;;;12.23;;
15230;SDS011;32569;51.762;8.564;2023-03-20T07:37:36;18.73;;;11.73;;
15230;SDS011;32569;51.762;8.564;2023-03-20T07:40:03;18.20;;;12.70;;
15230;SDS011;32569;51.762;8.564;2023-03-20T07:42:30;22.00;;;12.97;;
15230;SDS011;32569;51.762;8.564;2023-03-20T07:44:57;17.33;;;11.80;;
15230;SDS011;32569;51.762;8.564;2023-03-20T07:47:24;20.13;;;13.87;;
15230;SDS011;32569;51.762;8.564;2023-03-20T07:49:50;20.40;;;12.97;;
15230;SDS011;32569;51.762;8.564;2023-03-20T07:52:18;20.67;;;13.10;;
15230;SDS011;32569;51.762;8.564;2023-03-20T07:54:45;20.03;;;13.57;;
15230;SDS011;32569;51.762;8.564;2023-03-20T07:57:12;17.20;;;13.07;;
15230;SDS011;32569;51.762;8.564;2023-03-20T07:59:38;19.13;;;13.23;;
15230;SDS011;32569;51.762;8.564;2023-03-20T08:02:05;18.53;;;13.17;;
15230;SDS011;32569;51.762;8.564;2023-03-20T08:04:32;19.40;;;13.57;;
15230;SDS011;32569;51.762;8.564;2023-03-20T08:06:59;17.23;;;12.80;;
15230;SDS011;32569;51.762;8.564;2023-03-20T08:09:27;16.70;;;11.87;;
15230;SDS011;32569;51.762;8.564;2023-03-20T08:11:54;18.50;;;13.10;;
15230;SDS011;32569;51.762;8.564;2023-03-20T08:14:20;17.63;;;13.00;;
15230;SDS011;32569;51.762;8.564;2023-03-20T08:16:47;17.50;;;13.37;;
15230;SDS011;32569;51.762;8.564;2023-03-20T08:19:14;18.27;;;12.40;;
15230;SDS011;32569;51.762;8.564;2023-03-20T08:21:40;19.17;;;13.40;;
15230;SDS011;32569;51.762;8.564;2023-03-20T08:24:07;20.13;;;13.77;;
15230;SDS011;32569;51.762;8.564;2023-03-20T08:26:35;15.87;;;12.43;;
15230;SDS011;32569;51.762;8.564;2023-03-20T08:29:02;15.80;;;12.20;;
15230;SDS011;32569;51.762;8.564;2023-03-20T08:31:29;18.77;;;13.27;;
15230;SDS011;32569;51.762;8.564;2023-03-20T08:33:56;15.90;;;12.37;;
15230;SDS011;32569;51.762;8.564;2023-03-20T08:36:22;17.53;;;12.57;;
15230;SDS011;32569;51.762;8.564;2023-03-20T08:38:49;19.63;;;12.70;;
15230;SDS011;32569;51.762;8.564;2023-03-20T08:41:16;15.93;;;12.03;;
15230;SDS011;32569;51.762;8.564;2023-03-20T08:43:45;16.93;;;12.57;;
15230;SDS011;32569;51.762;8.564;2023-03-20T08:46:12;18.50;;;11.37;;
15230;SDS011;32569;51.762;8.564;2023-03-20T08:48:38;16.60;;;11.23;;
15230;SDS011;32569;51.762;8.564;2023-03-20T08:51:05;16.60;;;11.27;;
15230;SDS011;32569;51.762;8.564;2023-03-20T08:53:32;20.70;;;11.37;;
15230;SDS011;32569;51.762;8.564;2023-03-20T08:55:59;17.67;;;11.73;;
15230;SDS011;32569;51.762;8.564;2023-03-20T08:58:26;13.93;;;9.80;;
15230;SDS011;32569;51.762;8.564;2023-03-20T09:00:55;15.50;;;10.67;;
15230;SDS011;32569;51.762;8.564;2023-03-20T09:03:23;12.40;;;9.53;;
15230;SDS011;32569;51.762;8.564;2023-03-20T09:05:49;15.03;;;9.80;;
15230;SDS011;32569;51.762;8.564;2023-03-20T09:08:16;13.73;;;9.97;;
15230;SDS011;32569;51.762;8.564;2023-03-20T09:10:43;15.77;;;10.33;;
15230;SDS011;32569;51.762;8.564;2023-03-20T09:13:12;13.20;;;9.77;;
15230;SDS011;32569;51.762;8.564;2023-03-20T09:15:39;13.27;;;9.37;;
15230;SDS011;32569;51.762;8.564;2023-03-20T09:18:07;12.87;;;8.90;;
15230;SDS011;32569;51.762;8.564;2023-03-20T09:20:34;13.60;;;9.03;;
15230;SDS011;32569;51.762;8.564;2023-03-20T09:23:00;11.27;;;8.37;;
15230;SDS011;32569;51.762;8.564;2023-03-20T09:25:27;12.93;;;8.80;;
15230;SDS011;32569;51.762;8.564;2023-03-20T09:27:54;11.50;;;8.77;;
15230;SDS011;32569;51.762;8.564;2023-03-20T09:30:21;13.10;;;9.77;;
15230;SDS011;32569;51.762;8.564;2023-03-20T09:32:48;12.53;;;9.30;;
15230;SDS011;32569;51.762;8.564;2023-03-20T09:35:17;11.57;;;8.60;;
15230;SDS011;32569;51.762;8.564;2023-03-20T09:37:43;14.20;;;9.63;;
15230;SDS011;32569;51.762;8.564;2023-03-20T09:40:16;13.07;;;9.33;;
15230;SDS011;32569;51.762;8.564;2023-03-20T09:42:51;13.00;;;8.80;;
15230;SDS011;32569;51.762;8.564;2023-03-20T09:45:24;13.73;;;9.00;;
15230;SDS011;32569;51.762;8.564;2023-03-20T09:48:00;11.10;;;8.30;;
15230;SDS011;32569;51.762;8.564;2023-03-20T09:50:33;11.17;;;9.00;;
15230;SDS011;32569;51.762;8.564;2023-03-20T09:53:03;11.53;;;9.23;;
15230;SDS011;32569;51.762;8.564;2023-03-20T09:55:38;10.70;;;8.83;;
15230;SDS011;32569;51.762;8.564;2023-03-20T09:58:09;12.23;;;9.73;;
15230;SDS011;32569;51.762;8.564;2023-03-20T10:00:41;14.30;;;9.33;;
15230;SDS011;32569;51.762;8.564;2023-03-20T10:03:13;10.80;;;8.97;;
15230;SDS011;32569;51.762;8.564;2023-03-20T10:05:46;13.33;;;9.37;;
15230;SDS011;32569;51.762;8.564;2023-03-20T10:08:17;12.07;;;9.07;;
15230;SDS011;32569;51.762;8.564;2023-03-20T10:10:48;11.37;;;8.97;;
15230;SDS011;32569;51.762;8.564;2023-03-20T10:13:25;15.10;;;9.50;;
15230;SDS011;32569;51.762;8.564;2023-03-20T10:16:05;9.37;;;7.70;;
15230;SDS011;32569;51.762;8.564;2023-03-20T10:18:39;16.37;;;9.00;;
15230;SDS011;32569;51.762;8.564;2023-03-20T10:21:13;9.43;;;7.33;;
15230;SDS011;32569;51.762;8.564;2023-03-20T10:23:44;12.63;;;8.53;;
15230;SDS011;32569;51.762;8.564;2023-03-20T10:26:18;9.73;;;8.53;;
15230;SDS011;32569;51.762;8.564;2023-03-20T10:28:48;10.57;;;8.37;;
15230;SDS011;32569;51.762;8.564;2023-03-20T10:31:22;12.40;;;7.93;;
15230;SDS011;32569;51.762;8.564;2023-03-20T10:34:01;10.13;;;7.53;;
15230;SDS011;32569;51.762;8.564;2023-03-20T10:36:45;11.33;;;7.03;;
15230;SDS011;32569;51.762;8.564;2023-03-20T10:39:30;9.20;;;6.70;;
15230;SDS011;32569;51.762;8.564;2023-03-20T10:42:08;8.83;;;7.27;;
15230;SDS011;32569;51.762;8.564;2023-03-20T10:44:40;8.30;;;7.30;;
15230;SDS011;32569;51.762;8.564;2023-03-20T10:47:12;9.40;;;6.70;;
15230;SDS011;32569;51.762;8.564;2023-03-20T10:49:44;7.87;;;6.17;;
15230;SDS011;32569;51.762;8.564;2023-03-20T10:52:16;9.30;;;6.57;;
15230;SDS011;32569;51.762;8.564;2023-03-20T10:54:46;8.73;;;7.20;;
15230;SDS011;32569;51.762;8.564;2023-03-20T10:57:17;9.57;;;6.63;;
15230;SDS011;32569;51.762;8.564;2023-03-20T10:59:48;8.67;;;6.90;;
15230;SDS011;32569;51.762;8.564;2023-03-20T11:02:16;10.13;;;7.17;;
15230;SDS011;32569;51.762;8.564;2023-03-20T11:04:45;9.60;;;7.40;;
15230;SDS011;32569;51.762;8.564;2023-03-20T11:07:13;13.57;;;6.97;;
15230;SDS011;32569;51.762;8.564;2023-03-20T11:09:50;8.30;;;6.73;;
15230;SDS011;32569;51.762;8.564;2023-03-20T11:12:35;8.07;;;6.27;;
15230;SDS011;32569;51.762;8.564;2023-03-20T11:15:04;8.93;;;6.80;;
15230;SDS011;32569;51.762;8.564;2023-03-20T11:17:49;9.10;;;6.93;;
15230;SDS011;32569;51.762;8.564;2023-03-20T11:20:17;9.93;;;7.13;;
15230;SDS011;32569;51.762;8.564;2023-03-20T11:22:45;9.83;;;6.77;;
15230;SDS011;32569;51.762;8.564;2023-03-20T11:25:21;9.13;;;6.70;;
15230;SDS011;32569;51.762;8.564;2023-03-20T11:27:50;9.60;;;7.37;;
15230;SDS011;32569;51.762;8.564;2023-03-20T11:30:20;9.77;;;6.90;;
15230;SDS011;32569;51.762;8.564;2023-03-20T11:32:47;9.97;;;7.60;;
15230;SDS011;32569;51.762;8.564;2023-03-20T11:35:19;8.43;;;6.93;;
15230;SDS011;32569;51.762;8.564;2023-03-20T11:37:53;7.77;;;6.47;;
15230;SDS011;32569;51.762;8.564;2023-03-20T11:40:32;8.10;;;6.93;;
15230;SDS011;32569;51.762;8.564;2023-03-20T11:43:01;11.30;;;7.07;;
15230;SDS011;32569;51.762;8.564;2023-03-20T11:45:33;8.93;;;7.03;;
15230;SDS011;32569;51.762;8.564;2023-03-20T11:48:01;7.63;;;6.60;;
15230;SDS011;32569;51.762;8.564;2023-03-20T11:50:30;11.40;;;7.03;;
15230;SDS011;32569;51.762;8.564;2023-03-20T11:53:00;7.80;;;7.00;;
15230;SDS011;32569;51.762;8.564;2023-03-20T11:55:28;8.27;;;6.97;;
15230;SDS011;32569;51.762;8.564;2023-03-20T11:57:57;10.60;;;7.50;;
15230;SDS011;32569;51.762;8.564;2023-03-20T12:00:25;9.03;;;7.30;;
15230;SDS011;32569;51.762;8.564;2023-03-20T12:02:55;8.47;;;6.97;;
15230;SDS011;32569;51.762;8.564;2023-03-20T12:05:27;10.70;;;6.90;;
15230;SDS011;32569;51.762;8.564;2023-03-20T12:07:56;9.00;;;7.30;;
15230;SDS011;32569;51.762;8.564;2023-03-20T12:10:31;8.10;;;7.30;;
15230;SDS011;32569;51.762;8.564;2023-03-20T12:13:02;8.47;;;7.57;;
15230;SDS011;32569;51.762;8.564;2023-03-20T12:15:32;8.07;;;6.87;;
15230;SDS011;32569;51.762;8.564;2023-03-20T12:18:02;9.30;;;7.73;;
15230;SDS011;32569;51.762;8.564;2023-03-20T12:20:32;11.00;;;7.70;;
15230;SDS011;32569;51.762;8.564;2023-03-20T12:23:08;8.27;;;7.27;;
15230;SDS011;32569;51.762;8.564;2023-03-20T12:25:39;7.80;;;7.00;;
15230;SDS011;32569;51.762;8.564;2023-03-20T12:28:13;8.67;;;7.20;;
15230;SDS011;32569;51.762;8.564;2023-03-20T12:30:49;7.80;;;6.83;;
15230;SDS011;32569;51.762;8.564;2023-03-20T12:33:33;8.97;;;6.53;;
15230;SDS011;32569;51.762;8.564;2023-03-20T12:36:07;8.40;;;5.97;;
15230;SDS011;32569;51.762;8.564;2023-03-20T12:38:41;9.87;;;6.87;;
15230;SDS011;32569;51.762;8.564;2023-03-20T12:41:10;8.13;;;6.60;;
15230;SDS011;32569;51.762;8.564;2023-03-20T12:43:41;8.27;;;6.37;;
15230;SDS011;32569;51.762;8.564;2023-03-20T12:46:22;9.33;;;6.23;;
15230;SDS011;32569;51.762;8.564;2023-03-20T12:48:58;7.93;;;6.27;;
15230;SDS011;32569;51.762;8.564;2023-03-20T12:51:34;7.40;;;5.90;;
15230;SDS011;32569;51.762;8.564;2023-03-20T12:54:17;7.83;;;5.77;;
15230;SDS011;32569;51.762;8.564;2023-03-20T12:56:56;6.83;;;5.80;;
15230;SDS011;32569;51.762;8.564;2023-03-20T12:59:32;6.17;;;5.17;;
15230;SDS011;32569;51.762;8.564;2023-03-20T13:02:10;8.17;;;5.17;;
15230;SDS011;32569;51.762;8.564;2023-03-20T13:04:47;7.83;;;5.23;;
15230;SDS011;32569;51.762;8.564;2023-03-20T13:07:21;6.33;;;5.47;;
15230;SDS011;32569;51.762;8.564;2023-03-20T13:10:07;8.33;;;5.77;;
15230;SDS011;32569;51.762;8.564;2023-03-20T13:12:45;8.27;;;5.10;;
15230;SDS011;32569;51.762;8.564;2023-03-20T13:15:22;5.53;;;4.97;;
15230;SDS011;32569;51.762;8.564;2023-03-20T13:17:58;8.00;;;6.13;;
15230;SDS011;32569;51.762;8.564;2023-03-20T13:20:30;8.30;;;4.70;;
15230;SDS011;32569;51.762;8.564;2023-03-20T13:23:01;5.03;;;4.50;;
15230;SDS011;32569;51.762;8.564;2023-03-20T13:25:40;4.93;;;4.43;;
15230;SDS011;32569;51.762;8.564;2023-03-20T13:28:38;6.17;;;4.37;;
15230;SDS011;32569;51.762;8.564;2023-03-20T13:31:14;6.37;;;4.97;;
15230;SDS011;32569;51.762;8.564;2023-03-20T13:33:53;7.50;;;4.83;;
15230;SDS011;32569;51.762;8.564;2023-03-20T13:36:30;6.73;;;4.70;;
15230;SDS011;32569;51.762;8.564;2023-03-20T13:39:09;8.23;;;5.23;;
15230;SDS011;32569;51.762;8.564;2023-03-20T13:41:42;8.43;;;4.63;;
15230;SDS011;32569;51.762;8.564;2023-03-20T13:44:11;6.50;;;4.70;;
15230;SDS011;32569;51.762;8.564;2023-03-20T13:46:42;8.83;;;5.40;;
15230;SDS011;32569;51.762;8.564;2023-03-20T13:49:12;5.67;;;4.23;;
15230;SDS011;32569;51.762;8.564;2023-03-20T13:51:46;6.27;;;4.13;;
15230;SDS011;32569;51.762;8.564;2023-03-20T13:54:21;5.97;;;4.50;;
15230;SDS011;32569;51.762;8.564;2023-03-20T13:57:04;6.73;;;4.43;;
15230;SDS011;32569;51.762;8.564;2023-03-20T13:59:41;4.80;;;4.33;;
15230;SDS011;32569;51.762;8.564;2023-03-20T14:02:19;4.53;;;4.03;;
15230;SDS011;32569;51.762;8.564;2023-03-20T14:04:55;7.03;;;4.57;;
15230;SDS011;32569;51.762;8.564;2023-03-20T14:07:31;6.93;;;4.50;;
15230;SDS011;32569;51.762;8.564;2023-03-20T14:13:03;7.20;;;4.33;;
15230;SDS011;32569;51.762;8.564;2023-03-20T14:15:32;5.57;;;4.00;;
15230;SDS011;32569;51.762;8.564;2023-03-20T14:18:02;6.20;;;3.70;;
15230;SDS011;32569;51.762;8.564;2023-03-20T14:20:31;4.87;;;3.93;;
15230;SDS011;32569;51.762;8.564;2023-03-20T14:23:00;6.03;;;3.80;;
15230;SDS011;32569;51.762;8.564;2023-03-20T14:25:31;4.77;;;3.97;;
15230;SDS011;32569;51.762;8.564;2023-03-20T14:28:06;6.87;;;4.00;;
15230;SDS011;32569;51.762;8.564;2023-03-20T14:30:47;5.20;;;3.33;;
15230;SDS011;32569;51.762;8.564;2023-03-20T14:33:22;7.67;;;3.97;;
15230;SDS011;32569;51.762;8.564;2023-03-20T14:36:09;6.40;;;3.47;;
15230;SDS011;32569;51.762;8.564;2023-03-20T14:38:55;7.10;;;4.10;;
15230;SDS011;32569;51.762;8.564;2023-03-20T14:41:32;6.07;;;3.73;;
15230;SDS011;32569;51.762;8.564;2023-03-20T14:44:11;6.70;;;3.77;;
15230;SDS011;32569;51.762;8.564;2023-03-20T14:46:47;5.07;;;3.83;;
15230;SDS011;32569;51.762;8.564;2023-03-20T14:49:21;5.13;;;3.40;;
15230;SDS011;32569;51.762;8.564;2023-03-20T14:51:57;5.33;;;3.40;;
15230;SDS011;32569;51.762;8.564;2023-03-20T14:54:34;5.93;;;4.03;;
15230;SDS011;32569;51.762;8.564;2023-03-20T14:57:07;6.97;;;4.10;;
15230;SDS011;32569;51.762;8.564;2023-03-20T14:59:36;4.03;;;3.63;;